sensor_id;sensor_type;location;lat;lon;timestamp;P1;durP1;ratioP1;P2;durP2;ratioP2
36189;SDS011;22232;50.914;13.858;2023-05-07T00:00:23;69.78;;;30.38;;
36189;SDS011;22232;50.914;13.858;2023-05-07T00:02:50;73.22;;;31.90;;
36189;SDS011;22232;50.914;13.858;2023-05-07T00:05:18;80.03;;;34.53;;
36189;SDS011;22232;50.914;13.858;2023-05-07T00:07:46;82.97;;;36.83;;
36189;SDS011;22232;50.914;13.858;2023-05-07T00:10:14;76.22;;;35.05;;
36189;SDS011;22232;50.914;13.858;2023-05-07T00:12:41;80.32;;;35.50;;
36189;SDS011;22232;50.914;13.858;2023-05-07T00:15:09;83.55;;;35.45;;
36189;SDS011;22232;50.914;13.858;2023-05-07T00:17:38;81.95;;;34.95;;
36189;SDS011;22232;50.914;13.858;2023-05-07T00:20:06;83.30;;;33.83;;
36189;SDS011;22232;50.914;13.858;2023-05-07T00:22:34;84.18;;;35.85;;
36189;SDS011;22232;50.914;13.858;2023-05-07T00:25:02;77.25;;;33.17;;
36189;SDS011;22232;50.914;13.858;2023-05-07T00:27:29;72.25;;;32.65;;
36189;SDS011;22232;50.914;13.858;2023-05-07T00:29:57;76.43;;;34.55;;
36189;SDS011;22232;50.914;13.858;2023-05-07T00:32:24;77.45;;;34.05;;
36189;SDS011;22232;50.914;13.858;2023-05-07T00:34:52;70.82;;;32.78;;
36189;SDS011;22232;50.914;13.858;2023-05-07T00:37:19;82.43;;;34.75;;
36189;SDS011;22232;50.914;13.858;2023-05-07T00:39:47;83.18;;;34.72;;
36189;SDS011;22232;50.914;13.858;2023-05-07T00:42:14;79.97;;;35.97;;
36189;SDS011;22232;50.914;13.858;2023-05-07T00:44:43;78.95;;;36.33;;
36189;SDS011;22232;50.914;13.858;2023-05-07T00:47:10;78.65;;;35.70;;
36189;SDS011;22232;50.914;13.858;2023-05-07T00:49:39;80.32;;;34.63;;
36189;SDS011;22232;50.914;13.858;2023-05-07T00:52:11;78.45;;;34.70;;
36189;SDS011;22232;50.914;13.858;2023-05-07T00:54:40;93.28;;;35.88;;
36189;SDS011;22232;50.914;13.858;2023-05-07T00:57:09;87.05;;;36.50;;
36189;SDS011;22232;50.914;13.858;2023-05-07T00:59:38;92.03;;;35.35;;
36189;SDS011;22232;50.914;13.858;2023-05-07T01:02:07;95.10;;;36.63;;
36189;SDS011;22232;50.914;13.858;2023-05-07T01:04:35;89.43;;;35.75;;
36189;SDS011;22232;50.914;13.858;2023-05-07T01:07:04;85.35;;;33.17;;
36189;SDS011;22232;50.914;13.858;2023-05-07T01:09:32;91.30;;;36.47;;
36189;SDS011;22232;50.914;13.858;2023-05-07T01:12:02;101.25;;;35.80;;
36189;SDS011;22232;50.914;13.858;2023-05-07T01:14:31;105.85;;;36.42;;
36189;SDS011;22232;50.914;13.858;2023-05-07T01:17:00;94.95;;;37.90;;
36189;SDS011;22232;50.914;13.858;2023-05-07T01:19:28;100.75;;;37.25;;
36189;SDS011;22232;50.914;13.858;2023-05-07T01:22:01;98.80;;;38.47;;
36189;SDS011;22232;50.914;13.858;2023-05-07T01:24:37;98.82;;;38.00;;
36189;SDS011;22232;50.914;13.858;2023-05-07T01:27:07;111.07;;;39.60;;
36189;SDS011;22232;50.914;13.858;2023-05-07T01:29:36;105.78;;;39.95;;
36189;SDS011;22232;50.914;13.858;2023-05-07T01:32:04;111.28;;;40.47;;
36189;SDS011;22232;50.914;13.858;2023-05-07T01:34:32;101.85;;;38.97;;
36189;SDS011;22232;50.914;13.858;2023-05-07T01:37:03;109.22;;;40.63;;
36189;SDS011;22232;50.914;13.858;2023-05-07T01:39:31;109.63;;;40.65;;
36189;SDS011;22232;50.914;13.858;2023-05-07T01:41:59;104.22;;;40.17;;
36189;SDS011;22232;50.914;13.858;2023-05-07T01:44:27;109.72;;;42.45;;
36189;SDS011;22232;50.914;13.858;2023-05-07T01:46:56;105.63;;;44.05;;
36189;SDS011;22232;50.914;13.858;2023-05-07T01:49:24;100.07;;;40.28;;
36189;SDS011;22232;50.914;13.858;2023-05-07T01:51:52;98.13;;;40.33;;
36189;SDS011;22232;50.914;13.858;2023-05-07T01:54:24;95.07;;;40.70;;
36189;SDS011;22232;50.914;13.858;2023-05-07T01:56:56;100.00;;;41.83;;
36189;SDS011;22232;50.914;13.858;2023-05-07T01:59:25;103.60;;;42.45;;
36189;SDS011;22232;50.914;13.858;2023-05-07T02:01:52;94.07;;;40.30;;
36189;SDS011;22232;50.914;13.858;2023-05-07T02:04:20;102.18;;;41.72;;
36189;SDS011;22232;50.914;13.858;2023-05-07T02:06:48;96.03;;;41.03;;
36189;SDS011;22232;50.914;13.858;2023-05-07T02:09:16;89.82;;;40.97;;
36189;SDS011;22232;50.914;13.858;2023-05-07T02:11:47;97.22;;;40.72;;
36189;SDS011;22232;50.914;13.858;2023-05-07T02:14:15;98.63;;;41.00;;
36189;SDS011;22232;50.914;13.858;2023-05-07T02:16:43;95.03;;;38.97;;
36189;SDS011;22232;50.914;13.858;2023-05-07T02:19:12;85.90;;;39.95;;
36189;SDS011;22232;50.914;13.858;2023-05-07T02:21:40;91.18;;;40.47;;
36189;SDS011;22232;50.914;13.858;2023-05-07T02:24:08;84.00;;;38.40;;
36189;SDS011;22232;50.914;13.858;2023-05-07T02:26:35;82.78;;;37.25;;
36189;SDS011;22232;50.914;13.858;2023-05-07T02:29:03;88.13;;;39.25;;
36189;SDS011;22232;50.914;13.858;2023-05-07T02:31:31;91.68;;;39.33;;
36189;SDS011;22232;50.914;13.858;2023-05-07T02:34:01;81.28;;;38.40;;
36189;SDS011;22232;50.914;13.858;2023-05-07T02:36:28;85.47;;;39.08;;
36189;SDS011;22232;50.914;13.858;2023-05-07T02:39:03;82.78;;;39.08;;
36189;SDS011;22232;50.914;13.858;2023-05-07T02:41:30;85.88;;;38.60;;
36189;SDS011;22232;50.914;13.858;2023-05-07T02:43:59;84.70;;;38.90;;
36189;SDS011;22232;50.914;13.858;2023-05-07T02:46:26;90.30;;;39.83;;
36189;SDS011;22232;50.914;13.858;2023-05-07T02:49:02;85.95;;;38.30;;
36189;SDS011;22232;50.914;13.858;2023-05-07T02:51:30;89.63;;;39.00;;
36189;SDS011;22232;50.914;13.858;2023-05-07T02:54:01;84.75;;;38.05;;
36189;SDS011;22232;50.914;13.858;2023-05-07T02:56:30;84.25;;;38.28;;
36189;SDS011;22232;50.914;13.858;2023-05-07T02:58:57;85.88;;;38.35;;
36189;SDS011;22232;50.914;13.858;2023-05-07T03:01:29;87.53;;;38.80;;
36189;SDS011;22232;50.914;13.858;2023-05-07T03:04:05;82.20;;;38.10;;
36189;SDS011;22232;50.914;13.858;2023-05-07T03:06:33;88.00;;;38.17;;
36189;SDS011;22232;50.914;13.858;2023-05-07T03:09:00;88.63;;;39.45;;
36189;SDS011;22232;50.914;13.858;2023-05-07T03:11:29;82.40;;;36.17;;
36189;SDS011;22232;50.914;13.858;2023-05-07T03:13:56;76.78;;;36.40;;
36189;SDS011;22232;50.914;13.858;2023-05-07T03:16:25;83.50;;;37.47;;
36189;SDS011;22232;50.914;13.858;2023-05-07T03:18:53;86.57;;;37.47;;
36189;SDS011;22232;50.914;13.858;2023-05-07T03:21:21;83.05;;;36.00;;
36189;SDS011;22232;50.914;13.858;2023-05-07T03:23:49;83.90;;;36.03;;
36189;SDS011;22232;50.914;13.858;2023-05-07T03:26:16;76.70;;;34.08;;
36189;SDS011;22232;50.914;13.858;2023-05-07T03:28:44;68.88;;;32.28;;
36189;SDS011;22232;50.914;13.858;2023-05-07T03:31:14;65.57;;;31.17;;
36189;SDS011;22232;50.914;13.858;2023-05-07T03:33:51;58.65;;;28.33;;
36189;SDS011;22232;50.914;13.858;2023-05-07T03:36:20;59.67;;;28.80;;
36189;SDS011;22232;50.914;13.858;2023-05-07T03:38:49;60.80;;;28.45;;
36189;SDS011;22232;50.914;13.858;2023-05-07T03:41:21;60.75;;;28.70;;
36189;SDS011;22232;50.914;13.858;2023-05-07T03:43:48;56.25;;;27.27;;
36189;SDS011;22232;50.914;13.858;2023-05-07T03:46:16;52.33;;;25.33;;
36189;SDS011;22232;50.914;13.858;2023-05-07T03:48:44;52.38;;;25.85;;
36189;SDS011;22232;50.914;13.858;2023-05-07T03:51:13;47.88;;;23.73;;
36189;SDS011;22232;50.914;13.858;2023-05-07T03:53:41;46.03;;;23.67;;
36189;SDS011;22232;50.914;13.858;2023-05-07T03:56:09;53.38;;;25.73;;
36189;SDS011;22232;50.914;13.858;2023-05-07T03:58:38;48.78;;;25.00;;
36189;SDS011;22232;50.914;13.858;2023-05-07T04:01:09;54.30;;;26.00;;
36189;SDS011;22232;50.914;13.858;2023-05-07T04:03:37;54.90;;;25.50;;
36189;SDS011;22232;50.914;13.858;2023-05-07T04:06:04;64.18;;;29.13;;
36189;SDS011;22232;50.914;13.858;2023-05-07T04:08:34;72.50;;;30.00;;
36189;SDS011;22232;50.914;13.858;2023-05-07T04:11:03;64.80;;;29.15;;
36189;SDS011;22232;50.914;13.858;2023-05-07T04:13:32;68.30;;;29.92;;
36189;SDS011;22232;50.914;13.858;2023-05-07T04:16:02;79.38;;;31.88;;
36189;SDS011;22232;50.914;13.858;2023-05-07T04:18:34;73.70;;;30.45;;
36189;SDS011;22232;50.914;13.858;2023-05-07T04:21:01;70.60;;;31.48;;
36189;SDS011;22232;50.914;13.858;2023-05-07T04:23:29;77.95;;;30.30;;
36189;SDS011;22232;50.914;13.858;2023-05-07T04:26:02;74.22;;;29.92;;
36189;SDS011;22232;50.914;13.858;2023-05-07T04:28:37;71.30;;;29.73;;
36189;SDS011;22232;50.914;13.858;2023-05-07T04:31:06;71.85;;;30.95;;
36189;SDS011;22232;50.914;13.858;2023-05-07T04:33:36;79.65;;;30.98;;
36189;SDS011;22232;50.914;13.858;2023-05-07T04:36:05;70.53;;;28.58;;
36189;SDS011;22232;50.914;13.858;2023-05-07T04:38:39;66.70;;;28.90;;
36189;SDS011;22232;50.914;13.858;2023-05-07T04:41:08;68.20;;;29.10;;
36189;SDS011;22232;50.914;13.858;2023-05-07T04:43:39;64.88;;;28.73;;
36189;SDS011;22232;50.914;13.858;2023-05-07T04:46:10;61.80;;;28.95;;
36189;SDS011;22232;50.914;13.858;2023-05-07T04:48:38;60.88;;;27.15;;
36189;SDS011;22232;50.914;13.858;2023-05-07T04:51:06;53.03;;;25.25;;
36189;SDS011;22232;50.914;13.858;2023-05-07T04:53:34;55.45;;;26.50;;
36189;SDS011;22232;50.914;13.858;2023-05-07T04:56:02;58.55;;;27.17;;
36189;SDS011;22232;50.914;13.858;2023-05-07T04:58:37;62.97;;;27.27;;
36189;SDS011;22232;50.914;13.858;2023-05-07T05:01:04;60.17;;;27.15;;
36189;SDS011;22232;50.914;13.858;2023-05-07T05:03:33;58.20;;;26.58;;
36189;SDS011;22232;50.914;13.858;2023-05-07T05:06:01;56.85;;;26.02;;
36189;SDS011;22232;50.914;13.858;2023-05-07T05:08:32;53.42;;;24.65;;
36189;SDS011;22232;50.914;13.858;2023-05-07T05:11:02;54.70;;;25.35;;
36189;SDS011;22232;50.914;13.858;2023-05-07T05:13:32;45.33;;;22.33;;
36189;SDS011;22232;50.914;13.858;2023-05-07T05:16:04;45.50;;;21.33;;
36189;SDS011;22232;50.914;13.858;2023-05-07T05:18:32;39.50;;;19.42;;
36189;SDS011;22232;50.914;13.858;2023-05-07T05:21:00;43.75;;;22.17;;
36189;SDS011;22232;50.914;13.858;2023-05-07T05:23:28;39.42;;;21.13;;
36189;SDS011;22232;50.914;13.858;2023-05-07T05:25:56;40.22;;;21.63;;
36189;SDS011;22232;50.914;13.858;2023-05-07T05:28:27;40.50;;;20.52;;
36189;SDS011;22232;50.914;13.858;2023-05-07T05:30:55;33.22;;;19.38;;
36189;SDS011;22232;50.914;13.858;2023-05-07T05:33:25;34.08;;;19.38;;
36189;SDS011;22232;50.914;13.858;2023-05-07T05:35:53;26.73;;;16.20;;
36189;SDS011;22232;50.914;13.858;2023-05-07T05:38:21;27.42;;;15.60;;
36189;SDS011;22232;50.914;13.858;2023-05-07T05:40:49;24.77;;;14.52;;
36189;SDS011;22232;50.914;13.858;2023-05-07T05:43:17;26.60;;;15.68;;
36189;SDS011;22232;50.914;13.858;2023-05-07T05:45:45;26.15;;;16.00;;
36189;SDS011;22232;50.914;13.858;2023-05-07T05:48:13;27.33;;;15.95;;
36189;SDS011;22232;50.914;13.858;2023-05-07T05:50:42;28.83;;;16.10;;
36189;SDS011;22232;50.914;13.858;2023-05-07T05:53:10;26.88;;;15.57;;
36189;SDS011;22232;50.914;13.858;2023-05-07T05:55:38;25.98;;;15.20;;
36189;SDS011;22232;50.914;13.858;2023-05-07T05:58:06;25.88;;;15.10;;
36189;SDS011;22232;50.914;13.858;2023-05-07T06:00:37;28.15;;;16.20;;
36189;SDS011;22232;50.914;13.858;2023-05-07T06:03:06;28.45;;;15.63;;
36189;SDS011;22232;50.914;13.858;2023-05-07T06:05:35;31.15;;;16.73;;
36189;SDS011;22232;50.914;13.858;2023-05-07T06:08:02;31.20;;;16.92;;
36189;SDS011;22232;50.914;13.858;2023-05-07T06:10:32;30.48;;;17.48;;
36189;SDS011;22232;50.914;13.858;2023-05-07T06:13:00;27.45;;;15.88;;
36189;SDS011;22232;50.914;13.858;2023-05-07T06:15:30;29.10;;;16.45;;
36189;SDS011;22232;50.914;13.858;2023-05-07T06:18:02;25.73;;;14.95;;
36189;SDS011;22232;50.914;13.858;2023-05-07T06:20:30;27.08;;;15.40;;
36189;SDS011;22232;50.914;13.858;2023-05-07T06:22:59;27.27;;;15.57;;
36189;SDS011;22232;50.914;13.858;2023-05-07T06:25:27;23.52;;;13.68;;
36189;SDS011;22232;50.914;13.858;2023-05-07T06:27:54;23.08;;;13.48;;
36189;SDS011;22232;50.914;13.858;2023-05-07T06:30:24;23.02;;;14.05;;
36189;SDS011;22232;50.914;13.858;2023-05-07T06:32:52;25.38;;;14.75;;
36189;SDS011;22232;50.914;13.858;2023-05-07T06:35:19;25.00;;;14.65;;
36189;SDS011;22232;50.914;13.858;2023-05-07T06:37:47;23.25;;;13.88;;
36189;SDS011;22232;50.914;13.858;2023-05-07T06:40:20;21.83;;;14.18;;
36189;SDS011;22232;50.914;13.858;2023-05-07T06:42:48;21.40;;;13.68;;
36189;SDS011;22232;50.914;13.858;2023-05-07T06:45:36;21.08;;;13.07;;
36189;SDS011;22232;50.914;13.858;2023-05-07T06:48:05;20.58;;;12.50;;
36189;SDS011;22232;50.914;13.858;2023-05-07T06:50:42;22.42;;;13.10;;
36189;SDS011;22232;50.914;13.858;2023-05-07T06:53:10;17.63;;;11.73;;
36189;SDS011;22232;50.914;13.858;2023-05-07T06:55:38;19.50;;;11.48;;
36189;SDS011;22232;50.914;13.858;2023-05-07T06:58:06;15.00;;;10.00;;
36189;SDS011;22232;50.914;13.858;2023-05-07T07:00:33;14.25;;;9.65;;
36189;SDS011;22232;50.914;13.858;2023-05-07T07:03:01;13.35;;;8.88;;
36189;SDS011;22232;50.914;13.858;2023-05-07T07:05:30;12.82;;;9.23;;
36189;SDS011;22232;50.914;13.858;2023-05-07T07:07:59;16.70;;;9.80;;
36189;SDS011;22232;50.914;13.858;2023-05-07T07:10:27;16.40;;;9.68;;
36189;SDS011;22232;50.914;13.858;2023-05-07T07:12:55;13.07;;;8.32;;
36189;SDS011;22232;50.914;13.858;2023-05-07T07:15:23;11.68;;;7.88;;
36189;SDS011;22232;50.914;13.858;2023-05-07T07:17:54;14.57;;;9.18;;
36189;SDS011;22232;50.914;13.858;2023-05-07T07:20:23;14.18;;;9.32;;
36189;SDS011;22232;50.914;13.858;2023-05-07T07:22:50;14.43;;;9.25;;
36189;SDS011;22232;50.914;13.858;2023-05-07T07:25:18;17.13;;;8.43;;
36189;SDS011;22232;50.914;13.858;2023-05-07T07:27:47;13.85;;;8.27;;
36189;SDS011;22232;50.914;13.858;2023-05-07T07:30:15;13.93;;;7.65;;
36189;SDS011;22232;50.914;13.858;2023-05-07T07:32:46;11.48;;;8.40;;
36189;SDS011;22232;50.914;13.858;2023-05-07T07:35:15;12.70;;;7.63;;
36189;SDS011;22232;50.914;13.858;2023-05-07T07:37:44;11.52;;;8.00;;
36189;SDS011;22232;50.914;13.858;2023-05-07T07:40:13;12.18;;;8.38;;
36189;SDS011;22232;50.914;13.858;2023-05-07T07:42:41;15.43;;;10.32;;
36189;SDS011;22232;50.914;13.858;2023-05-07T07:45:10;16.25;;;10.30;;
36189;SDS011;22232;50.914;13.858;2023-05-07T07:47:42;17.88;;;11.02;;
36189;SDS011;22232;50.914;13.858;2023-05-07T07:50:10;15.23;;;9.98;;
36189;SDS011;22232;50.914;13.858;2023-05-07T07:52:48;14.20;;;9.45;;
36189;SDS011;22232;50.914;13.858;2023-05-07T07:55:19;12.70;;;8.25;;
36189;SDS011;22232;50.914;13.858;2023-05-07T07:57:52;11.95;;;8.50;;
36189;SDS011;22232;50.914;13.858;2023-05-07T08:00:21;12.48;;;8.32;;
36189;SDS011;22232;50.914;13.858;2023-05-07T08:02:52;14.07;;;8.45;;
36189;SDS011;22232;50.914;13.858;2023-05-07T08:05:25;11.70;;;8.13;;
36189;SDS011;22232;50.914;13.858;2023-05-07T08:07:53;11.65;;;7.82;;
36189;SDS011;22232;50.914;13.858;2023-05-07T08:10:26;11.27;;;7.90;;
36189;SDS011;22232;50.914;13.858;2023-05-07T08:13:00;12.00;;;8.15;;
36189;SDS011;22232;50.914;13.858;2023-05-07T08:15:28;10.02;;;8.00;;
36189;SDS011;22232;50.914;13.858;2023-05-07T08:17:55;12.45;;;8.07;;
36189;SDS011;22232;50.914;13.858;2023-05-07T08:24:37;11.50;;;8.07;;
36189;SDS011;22232;50.914;13.858;2023-05-07T08:27:05;10.07;;;8.02;;
36189;SDS011;22232;50.914;13.858;2023-05-07T08:29:33;10.05;;;7.47;;
36189;SDS011;22232;50.914;13.858;2023-05-07T08:32:01;9.88;;;7.65;;
36189;SDS011;22232;50.914;13.858;2023-05-07T08:34:28;9.13;;;7.07;;
36189;SDS011;22232;50.914;13.858;2023-05-07T08:36:57;9.15;;;6.63;;
36189;SDS011;22232;50.914;13.858;2023-05-07T08:39:26;9.23;;;6.93;;
36189;SDS011;22232;50.914;13.858;2023-05-07T08:41:55;7.60;;;6.50;;
36189;SDS011;22232;50.914;13.858;2023-05-07T08:44:26;7.32;;;5.93;;
36189;SDS011;22232;50.914;13.858;2023-05-07T08:46:56;7.75;;;6.15;;
36189;SDS011;22232;50.914;13.858;2023-05-07T08:49:27;8.23;;;6.57;;
36189;SDS011;22232;50.914;13.858;2023-05-07T08:51:56;8.32;;;7.13;;
36189;SDS011;22232;50.914;13.858;2023-05-07T08:54:24;8.38;;;6.68;;
36189;SDS011;22232;50.914;13.858;2023-05-07T08:56:54;10.77;;;8.32;;
36189;SDS011;22232;50.914;13.858;2023-05-07T08:59:22;9.55;;;7.75;;
36189;SDS011;22232;50.914;13.858;2023-05-07T09:01:49;9.63;;;7.40;;
36189;SDS011;22232;50.914;13.858;2023-05-07T09:04:17;11.73;;;8.55;;
36189;SDS011;22232;50.914;13.858;2023-05-07T09:06:45;13.75;;;8.88;;
36189;SDS011;22232;50.914;13.858;2023-05-07T09:09:16;10.77;;;8.25;;
36189;SDS011;22232;50.914;13.858;2023-05-07T09:11:51;12.15;;;9.13;;
36189;SDS011;22232;50.914;13.858;2023-05-07T09:14:27;14.27;;;10.02;;
36189;SDS011;22232;50.914;13.858;2023-05-07T09:16:55;17.52;;;9.55;;
36189;SDS011;22232;50.914;13.858;2023-05-07T09:19:24;13.13;;;9.93;;
36189;SDS011;22232;50.914;13.858;2023-05-07T09:22:00;13.05;;;9.48;;
36189;SDS011;22232;50.914;13.858;2023-05-07T09:24:38;15.48;;;9.88;;
36189;SDS011;22232;50.914;13.858;2023-05-07T09:27:09;14.43;;;10.05;;
36189;SDS011;22232;50.914;13.858;2023-05-07T09:29:43;12.48;;;8.73;;
36189;SDS011;22232;50.914;13.858;2023-05-07T09:32:13;11.15;;;8.63;;
36189;SDS011;22232;50.914;13.858;2023-05-07T09:34:42;12.38;;;8.85;;
36189;SDS011;22232;50.914;13.858;2023-05-07T09:37:12;9.50;;;6.75;;
36189;SDS011;22232;50.914;13.858;2023-05-07T09:39:41;12.13;;;7.88;;
36189;SDS011;22232;50.914;13.858;2023-05-07T09:42:11;11.32;;;7.95;;
36189;SDS011;22232;50.914;13.858;2023-05-07T09:44:40;11.65;;;7.75;;
36189;SDS011;22232;50.914;13.858;2023-05-07T09:47:12;10.10;;;7.93;;
36189;SDS011;22232;50.914;13.858;2023-05-07T09:49:47;10.05;;;7.30;;
36189;SDS011;22232;50.914;13.858;2023-05-07T09:52:19;9.93;;;7.25;;
36189;SDS011;22232;50.914;13.858;2023-05-07T09:54:51;8.93;;;7.03;;
36189;SDS011;22232;50.914;13.858;2023-05-07T09:57:23;11.15;;;7.25;;
36189;SDS011;22232;50.914;13.858;2023-05-07T09:59:55;9.75;;;6.75;;
36189;SDS011;22232;50.914;13.858;2023-05-07T10:02:27;11.15;;;8.05;;
36189;SDS011;22232;50.914;13.858;2023-05-07T10:04:57;11.98;;;7.97;;
36189;SDS011;22232;50.914;13.858;2023-05-07T10:07:30;9.35;;;6.65;;
36189;SDS011;22232;50.914;13.858;2023-05-07T10:10:05;9.45;;;7.50;;
36189;SDS011;22232;50.914;13.858;2023-05-07T10:12:38;11.00;;;8.10;;
36189;SDS011;22232;50.914;13.858;2023-05-07T10:15:13;10.30;;;7.00;;
36189;SDS011;22232;50.914;13.858;2023-05-07T10:17:46;10.98;;;7.40;;
36189;SDS011;22232;50.914;13.858;2023-05-07T10:20:16;9.82;;;7.47;;
36189;SDS011;22232;50.914;13.858;2023-05-07T10:22:46;9.85;;;7.75;;
36189;SDS011;22232;50.914;13.858;2023-05-07T10:25:21;10.38;;;7.55;;
36189;SDS011;22232;50.914;13.858;2023-05-07T10:27:53;9.17;;;7.13;;
36189;SDS011;22232;50.914;13.858;2023-05-07T10:33:10;8.85;;;6.47;;
36189;SDS011;22232;50.914;13.858;2023-05-07T10:35:44;8.00;;;6.47;;
36189;SDS011;22232;50.914;13.858;2023-05-07T10:38:15;8.70;;;7.07;;
36189;SDS011;22232;50.914;13.858;2023-05-07T10:40:44;9.10;;;6.72;;
36189;SDS011;22232;50.914;13.858;2023-05-07T10:43:16;10.15;;;7.22;;
36189;SDS011;22232;50.914;13.858;2023-05-07T10:51:44;9.35;;;6.90;;
36189;SDS011;22232;50.914;13.858;2023-05-07T10:54:23;9.65;;;7.28;;
36189;SDS011;22232;50.914;13.858;2023-05-07T11:05:39;10.43;;;7.68;;
36189;SDS011;22232;50.914;13.858;2023-05-07T11:08:16;10.43;;;7.93;;
36189;SDS011;22232;50.914;13.858;2023-05-07T11:10:56;10.27;;;7.70;;
36189;SDS011;22232;50.914;13.858;2023-05-07T11:13:48;9.95;;;8.05;;
36189;SDS011;22232;50.914;13.858;2023-05-07T11:16:39;9.48;;;7.35;;
36189;SDS011;22232;50.914;13.858;2023-05-07T11:19:37;10.85;;;7.40;;
36189;SDS011;22232;50.914;13.858;2023-05-07T11:22:51;10.77;;;8.50;;
36189;SDS011;22232;50.914;13.858;2023-05-07T11:25:27;10.10;;;8.15;;
36189;SDS011;22232;50.914;13.858;2023-05-07T11:28:05;10.25;;;7.97;;
36189;SDS011;22232;50.914;13.858;2023-05-07T11:30:42;10.40;;;8.02;;
36189;SDS011;22232;50.914;13.858;2023-05-07T11:33:16;10.30;;;8.00;;
36189;SDS011;22232;50.914;13.858;2023-05-07T11:35:45;10.35;;;7.10;;
36189;SDS011;22232;50.914;13.858;2023-05-07T11:38:15;9.65;;;7.82;;
36189;SDS011;22232;50.914;13.858;2023-05-07T11:43:19;10.23;;;8.00;;
36189;SDS011;22232;50.914;13.858;2023-05-07T11:45:47;8.52;;;7.15;;
36189;SDS011;22232;50.914;13.858;2023-05-07T11:48:15;8.88;;;7.28;;
36189;SDS011;22232;50.914;13.858;2023-05-07T11:50:53;10.73;;;7.72;;
36189;SDS011;22232;50.914;13.858;2023-05-07T11:53:27;9.00;;;7.55;;
36189;SDS011;22232;50.914;13.858;2023-05-07T11:55:55;11.73;;;8.43;;
36189;SDS011;22232;50.914;13.858;2023-05-07T11:58:24;9.57;;;7.97;;
36189;SDS011;22232;50.914;13.858;2023-05-07T12:00:53;12.20;;;7.90;;
36189;SDS011;22232;50.914;13.858;2023-05-07T12:03:21;13.13;;;9.00;;
36189;SDS011;22232;50.914;13.858;2023-05-07T12:05:49;12.52;;;8.25;;
36189;SDS011;22232;50.914;13.858;2023-05-07T12:08:19;11.38;;;8.63;;
36189;SDS011;22232;50.914;13.858;2023-05-07T12:10:48;11.45;;;8.20;;
36189;SDS011;22232;50.914;13.858;2023-05-07T12:13:17;10.80;;;8.23;;
36189;SDS011;22232;50.914;13.858;2023-05-07T12:15:50;11.02;;;8.48;;
36189;SDS011;22232;50.914;13.858;2023-05-07T12:18:22;10.57;;;8.57;;
36189;SDS011;22232;50.914;13.858;2023-05-07T12:20:50;10.90;;;8.65;;
36189;SDS011;22232;50.914;13.858;2023-05-07T12:23:18;10.45;;;8.05;;
36189;SDS011;22232;50.914;13.858;2023-05-07T12:25:46;10.98;;;8.68;;
36189;SDS011;22232;50.914;13.858;2023-05-07T12:28:15;10.00;;;8.00;;
36189;SDS011;22232;50.914;13.858;2023-05-07T12:30:44;11.07;;;8.10;;
36189;SDS011;22232;50.914;13.858;2023-05-07T12:33:25;10.90;;;8.65;;
36189;SDS011;22232;50.914;13.858;2023-05-07T12:35:54;11.95;;;9.10;;
36189;SDS011;22232;50.914;13.858;2023-05-07T12:38:24;9.43;;;7.75;;
36189;SDS011;22232;50.914;13.858;2023-05-07T12:40:53;10.30;;;8.02;;
36189;SDS011;22232;50.914;13.858;2023-05-07T12:43:25;9.82;;;8.25;;
36189;SDS011;22232;50.914;13.858;2023-05-07T12:45:54;12.30;;;9.07;;
36189;SDS011;22232;50.914;13.858;2023-05-07T12:48:23;11.50;;;7.63;;
36189;SDS011;22232;50.914;13.858;2023-05-07T12:50:54;10.10;;;8.45;;
36189;SDS011;22232;50.914;13.858;2023-05-07T12:53:25;10.43;;;8.43;;
36189;SDS011;22232;50.914;13.858;2023-05-07T12:55:55;10.55;;;8.88;;
36189;SDS011;22232;50.914;13.858;2023-05-07T13:00:56;11.02;;;8.48;;
36189;SDS011;22232;50.914;13.858;2023-05-07T13:03:28;9.57;;;8.13;;
36189;SDS011;22232;50.914;13.858;2023-05-07T13:06:01;12.02;;;8.82;;
36189;SDS011;22232;50.914;13.858;2023-05-07T13:08:33;11.13;;;8.48;;
36189;SDS011;22232;50.914;13.858;2023-05-07T13:11:03;9.82;;;8.15;;
36189;SDS011;22232;50.914;13.858;2023-05-07T13:13:32;13.85;;;8.50;;
36189;SDS011;22232;50.914;13.858;2023-05-07T13:16:02;13.85;;;9.20;;
36189;SDS011;22232;50.914;13.858;2023-05-07T13:18:30;10.52;;;8.00;;
36189;SDS011;22232;50.914;13.858;2023-05-07T13:20:59;11.43;;;9.23;;
36189;SDS011;22232;50.914;13.858;2023-05-07T13:23:28;10.73;;;8.38;;
36189;SDS011;22232;50.914;13.858;2023-05-07T13:25:55;10.88;;;8.07;;
36189;SDS011;22232;50.914;13.858;2023-05-07T13:28:24;9.77;;;7.13;;
36189;SDS011;22232;50.914;13.858;2023-05-07T13:30:52;10.02;;;8.25;;
36189;SDS011;22232;50.914;13.858;2023-05-07T13:33:20;10.05;;;7.65;;
36189;SDS011;22232;50.914;13.858;2023-05-07T13:35:47;11.00;;;8.18;;
36189;SDS011;22232;50.914;13.858;2023-05-07T13:38:15;10.98;;;7.10;;
36189;SDS011;22232;50.914;13.858;2023-05-07T13:40:43;10.02;;;7.90;;
36189;SDS011;22232;50.914;13.858;2023-05-07T13:43:10;9.70;;;7.13;;
36189;SDS011;22232;50.914;13.858;2023-05-07T13:45:38;11.23;;;7.90;;
36189;SDS011;22232;50.914;13.858;2023-05-07T13:48:05;11.18;;;8.02;;
36189;SDS011;22232;50.914;13.858;2023-05-07T13:50:33;9.85;;;7.28;;
36189;SDS011;22232;50.914;13.858;2023-05-07T13:53:01;8.18;;;6.97;;
36189;SDS011;22232;50.914;13.858;2023-05-07T13:55:29;8.77;;;7.40;;
36189;SDS011;22232;50.914;13.858;2023-05-07T13:58:00;7.28;;;6.38;;
36189;SDS011;22232;50.914;13.858;2023-05-07T14:00:33;8.13;;;6.80;;
36189;SDS011;22232;50.914;13.858;2023-05-07T14:03:01;8.20;;;7.20;;
36189;SDS011;22232;50.914;13.858;2023-05-07T14:05:29;9.27;;;6.80;;
36189;SDS011;22232;50.914;13.858;2023-05-07T14:07:57;6.65;;;5.63;;
36189;SDS011;22232;50.914;13.858;2023-05-07T14:10:25;7.90;;;5.68;;
36189;SDS011;22232;50.914;13.858;2023-05-07T14:12:52;9.38;;;6.43;;
36189;SDS011;22232;50.914;13.858;2023-05-07T14:15:20;8.57;;;6.25;;
36189;SDS011;22232;50.914;13.858;2023-05-07T14:17:48;8.63;;;5.72;;
36189;SDS011;22232;50.914;13.858;2023-05-07T14:20:15;9.95;;;5.90;;
36189;SDS011;22232;50.914;13.858;2023-05-07T14:22:43;7.25;;;5.88;;
36189;SDS011;22232;50.914;13.858;2023-05-07T14:25:10;7.80;;;5.80;;
36189;SDS011;22232;50.914;13.858;2023-05-07T14:27:38;7.68;;;5.82;;
36189;SDS011;22232;50.914;13.858;2023-05-07T14:30:05;8.27;;;5.82;;
36189;SDS011;22232;50.914;13.858;2023-05-07T14:32:33;7.40;;;5.28;;
36189;SDS011;22232;50.914;13.858;2023-05-07T14:35:01;6.88;;;4.80;;
36189;SDS011;22232;50.914;13.858;2023-05-07T14:37:29;7.68;;;5.75;;
36189;SDS011;22232;50.914;13.858;2023-05-07T14:39:56;7.32;;;4.68;;
36189;SDS011;22232;50.914;13.858;2023-05-07T14:42:24;7.07;;;5.35;;
36189;SDS011;22232;50.914;13.858;2023-05-07T14:44:51;5.22;;;4.38;;
36189;SDS011;22232;50.914;13.858;2023-05-07T14:47:20;8.68;;;5.32;;
36189;SDS011;22232;50.914;13.858;2023-05-07T14:49:47;5.60;;;4.78;;
36189;SDS011;22232;50.914;13.858;2023-05-07T14:52:15;7.63;;;5.10;;
36189;SDS011;22232;50.914;13.858;2023-05-07T14:54:42;6.75;;;4.75;;
36189;SDS011;22232;50.914;13.858;2023-05-07T14:57:10;6.22;;;4.78;;